createdAt,value
2018-12-13T00:02:35.668Z,95057.12
2018-12-13T00:05:39.008Z,95056.63
2018-12-13T00:08:42.318Z,95053.75
2018-12-13T00:11:45.724Z,95048.26
2018-12-13T00:14:49.131Z,95042.78
2018-12-13T00:17:52.437Z,95044.85
2018-12-13T00:20:55.752Z,95039.11
2018-12-13T00:23:59.120Z,95035.73
2018-12-13T00:27:02.527Z,95032.33
2018-12-13T00:30:06.129Z,95030.73
2018-12-13T00:33:09.524Z,95026.05
2018-12-13T00:36:12.927Z,95026.84
2018-12-13T00:39:16.316Z,95022.92
2018-12-13T00:42:19.694Z,95019.79
2018-12-13T00:45:23.014Z,95016.65
2018-12-13T00:48:26.317Z,95014.04
2018-12-13T00:51:29.737Z,95014.57
2018-12-13T00:54:33.113Z,95011.45
2018-12-13T00:57:36.422Z,95016.41
2018-12-13T01:00:39.825Z,95009.34
2018-12-13T01:03:43.157Z,95009.87
2018-12-13T01:06:46.509Z,95009.63
2018-12-13T01:09:49.913Z,95004.14
2018-12-13T01:12:53.226Z,95009.08
2018-12-13T01:15:56.621Z,95009.36
2018-12-13T01:18:59.904Z,95012.73
2018-12-13T01:22:03.209Z,95010.13
2018-12-13T01:25:06.659Z,95003.08
2018-12-13T01:28:10.057Z,95003.85
2018-12-13T01:31:13.433Z,94996.81
2018-12-13T01:34:16.797Z,94994.73
2018-12-13T01:37:20.110Z,94999.69
2018-12-13T01:40:23.420Z,94996.02
2018-12-13T01:43:26.846Z,94993.16
2018-12-13T01:46:30.177Z,94986.64
2018-12-13T01:49:33.493Z,94992.88
2018-12-13T01:52:36.853Z,94985.60
2018-12-13T01:55:40.302Z,94986.63
2018-12-13T01:58:43.705Z,94982.17
2018-12-13T02:05:03.996Z,94972.78
2018-12-13T02:08:07.380Z,94973.56
2018-12-13T02:11:10.880Z,94966.52
2018-12-13T02:14:14.193Z,94969.13
2018-12-13T02:17:17.534Z,94962.08
2018-12-13T02:20:20.872Z,94960.53
2018-12-13T02:23:24.198Z,94959.73
2018-12-13T02:26:27.652Z,94961.81
2018-12-13T02:29:31.109Z,94961.83
2018-12-13T02:32:34.513Z,94956.59
2018-12-13T02:35:38.135Z,94948.24
2018-12-13T02:38:41.602Z,94947.73
2018-12-13T02:41:44.959Z,94947.98
2018-12-13T02:44:48.289Z,94944.06
2018-12-13T02:47:51.653Z,94940.95
2018-12-13T02:50:54.966Z,94942.73
2018-12-13T02:53:58.316Z,94939.86
2018-12-13T02:57:01.679Z,94938.55
2018-12-13T03:00:06.499Z,94938.80
2018-12-13T03:03:09.904Z,94934.14
2018-12-13T03:06:13.241Z,94925.79
2018-12-13T03:09:16.608Z,94922.65
2018-12-13T03:12:19.947Z,94926.31
2018-12-13T03:15:23.256Z,94928.39
2018-12-13T03:18:26.576Z,94926.57
2018-12-13T03:21:29.982Z,94917.98
2018-12-13T03:24:33.397Z,94921.89
2018-12-13T03:27:36.824Z,94923.45
2018-12-13T03:30:40.224Z,94920.08
2018-12-13T03:33:43.639Z,94916.95
2018-12-13T03:36:46.953Z,94913.55
2018-12-13T03:39:50.270Z,94909.12
2018-12-13T03:42:53.853Z,94914.59
2018-12-13T03:45:57.151Z,94904.15
2018-12-13T03:49:00.463Z,94904.68
2018-12-13T03:52:03.878Z,94904.92
2018-12-13T03:55:07.324Z,94903.10
2018-12-13T03:58:10.666Z,94897.65
2018-12-13T04:01:13.977Z,94890.33
2018-12-13T04:04:17.302Z,94888.50
2018-12-13T04:07:27.621Z,94886.69
2018-12-13T04:10:26.101Z,94885.13
2018-12-13T04:13:29.414Z,94879.10
2018-12-13T04:16:32.776Z,94878.58
2018-12-13T04:19:36.141Z,94874.42
2018-12-13T04:22:39.538Z,94866.85
2018-12-13T04:25:43.006Z,94862.95
2018-12-13T04:28:46.328Z,94862.95
2018-12-13T04:31:50.713Z,94861.63
2018-12-13T04:34:54.320Z,94860.06
2018-12-13T04:37:57.653Z,94860.06
2018-12-13T04:41:00.990Z,94855.89
2018-12-13T04:44:04.410Z,94860.33
2018-12-13T04:47:07.962Z,94851.99
2018-12-13T04:53:28.085Z,94851.47
2018-12-13T04:56:31.425Z,94843.39
2018-12-13T04:59:34.801Z,94842.61
2018-12-13T05:02:38.138Z,94841.05
2018-12-13T05:05:41.864Z,94841.03
2018-12-13T05:08:45.329Z,94834.52
2018-12-13T05:11:48.791Z,94836.09
2018-12-13T05:14:52.308Z,94833.74
2018-12-13T05:17:55.869Z,94832.98
2018-12-13T05:20:59.199Z,94824.63
2018-12-13T05:24:02.557Z,94827.50
2018-12-13T05:27:05.889Z,94823.33
2018-12-13T05:30:09.322Z,94822.55
2018-12-13T05:33:12.949Z,94820.98
2018-12-13T05:36:16.638Z,94818.11
2018-12-13T05:39:20.069Z,94818.90
2018-12-13T05:42:23.504Z,94811.59
2018-12-13T05:45:26.808Z,94810.55
2018-12-13T05:48:30.131Z,94812.64
2018-12-13T05:51:33.489Z,94813.95
2018-12-13T05:54:36.833Z,94808.20
2018-12-13T05:57:40.146Z,94809.52
2018-12-13T06:00:43.504Z,94808.20
2018-12-13T06:03:46.880Z,94800.63
2018-12-13T06:06:50.280Z,94800.11
2018-12-13T06:09:53.619Z,94802.98
2018-12-13T06:12:56.920Z,94799.06
2018-12-13T06:16:00.317Z,94798.56
2018-12-13T06:19:03.780Z,94800.11
2018-12-13T06:22:07.250Z,94797.25
2018-12-13T06:25:10.659Z,94800.63
2018-12-13T06:28:14.029Z,94795.42
2018-12-13T06:31:17.783Z,94793.33
2018-12-13T06:34:21.119Z,94806.91
2018-12-13T06:37:24.535Z,94799.34
2018-12-13T06:40:27.916Z,94795.95
2018-12-13T06:43:31.233Z,94796.73
2018-12-13T06:46:34.594Z,94795.95
2018-12-13T06:49:37.930Z,94795.94
2018-12-13T06:52:41.574Z,94801.44
2018-12-13T06:55:45.037Z,94793.60
2018-12-13T06:58:48.349Z,94796.72
2018-12-13T07:01:51.704Z,94799.59
2018-12-13T07:04:55.888Z,94794.39
2018-12-13T07:07:59.286Z,94788.13
2018-12-13T07:11:02.621Z,94792.31
2018-12-13T07:14:06.476Z,94789.69
2018-12-13T07:17:09.970Z,94798.02
2018-12-13T07:20:13.283Z,94802.73
2018-12-13T07:23:17.506Z,94793.59
2018-12-13T07:26:20.910Z,94795.44
2018-12-13T07:29:24.258Z,94796.48
2018-12-13T07:32:27.890Z,94792.58
2018-12-13T07:35:31.224Z,94792.03
2018-12-13T07:38:35.452Z,94802.47
2018-12-13T07:41:39.294Z,94790.98
2018-12-13T07:44:42.649Z,94785.27
2018-12-13T07:47:46.744Z,94792.30
2018-12-13T07:50:52.404Z,94787.87
2018-12-13T07:53:55.772Z,94791.78
2018-12-13T07:56:59.145Z,94789.68
2018-12-13T08:00:02.466Z,94784.48
2018-12-13T08:03:05.865Z,94789.17
2018-12-13T08:06:09.196Z,94787.08
2018-12-13T08:09:12.542Z,94797.77
2018-12-13T08:12:15.859Z,94788.09
2018-12-13T08:15:19.843Z,94788.63
2018-12-13T08:18:23.306Z,94787.59
2018-12-13T08:21:26.663Z,94793.83
2018-12-13T08:24:29.973Z,94781.56
2018-12-13T08:27:33.329Z,94785.48
2018-12-13T08:30:36.970Z,94786.81
2018-12-13T08:33:40.374Z,94785.23
2018-12-13T08:36:43.825Z,94790.19
2018-12-13T08:39:47.184Z,94775.61
2018-12-13T08:42:50.497Z,94777.93
2018-12-13T08:45:53.946Z,94776.36
2018-12-13T08:48:57.325Z,94770.39
2018-12-13T08:52:00.673Z,94772.19
2018-12-13T08:55:04.912Z,94766.94
2018-12-13T08:58:08.389Z,94773.20
2018-12-13T09:01:11.851Z,94767.22
2018-12-13T09:04:15.292Z,94765.93
2018-12-13T09:07:18.750Z,94757.83
2018-12-13T09:10:22.161Z,94759.89
2018-12-13T09:13:25.486Z,94757.27
2018-12-13T09:16:31.687Z,94755.93
2018-12-13T09:19:34.124Z,94757.55
2018-12-13T09:22:37.465Z,94757.78
2018-12-13T09:25:41.043Z,94761.41
2018-12-13T09:28:44.333Z,94759.59
2018-12-13T09:31:47.735Z,94761.39
2018-12-13T09:34:51.166Z,94759.09
2018-12-13T09:37:54.455Z,94756.45
2018-12-13T09:44:14.546Z,94755.88
2018-12-13T09:47:17.889Z,94747.29
2018-12-13T09:50:21.254Z,94748.65
2018-12-13T09:53:24.580Z,94743.97
2018-12-13T09:56:27.925Z,94743.71
2018-12-13T09:59:31.280Z,94734.87
2018-12-13T10:02:34.688Z,94732.20
2018-12-13T10:05:38.029Z,94734.30
2018-12-13T10:08:46.290Z,94733.23
2018-12-13T10:11:46.882Z,94728.47
2018-12-13T10:14:50.284Z,94725.59
2018-12-13T10:17:53.657Z,94716.46
2018-12-13T10:20:57.069Z,94715.48
2018-12-13T10:24:00.425Z,94714.70
2018-12-13T10:27:03.868Z,94704.75
2018-12-13T10:30:07.443Z,94707.06
2018-12-13T10:33:10.821Z,94698.97
2018-12-13T10:36:14.200Z,94690.91
2018-12-13T10:39:17.569Z,94695.97
2018-12-13T10:42:20.914Z,94693.85
2018-12-13T10:45:24.279Z,94690.92
2018-12-13T10:48:27.601Z,94690.09
2018-12-13T10:51:31.063Z,94692.94
2018-12-13T10:54:34.375Z,94686.44
2018-12-13T10:57:37.714Z,94695.02
2018-12-13T11:00:47.010Z,94689.31
2018-12-13T11:03:50.435Z,94692.97
2018-12-13T11:06:53.730Z,94686.14
2018-12-13T11:09:57.179Z,94685.92
2018-12-13T11:13:00.616Z,94681.73
2018-12-13T11:16:04.093Z,94684.39
2018-12-13T11:22:44.466Z,94682.56
2018-12-13T11:25:47.777Z,94676.18
2018-12-13T11:29:09.080Z,94680.61
2018-12-13T11:32:12.470Z,94672.48
2018-12-13T11:35:15.853Z,94671.61
2018-12-13T11:38:19.165Z,94667.53
2018-12-13T11:41:22.552Z,94665.36
2018-12-13T11:44:26.000Z,94658.59
2018-12-13T11:47:29.330Z,94664.31
2018-12-13T11:50:32.681Z,94662.91
2018-12-13T11:53:36.302Z,94663.86
2018-12-13T11:56:39.879Z,94669.73
2018-12-13T11:59:43.306Z,94669.81
2018-12-13T12:02:46.616Z,94669.30
2018-12-13T12:05:49.938Z,94672.86
2018-12-13T12:08:53.245Z,94672.64
2018-12-13T12:11:56.806Z,94666.06
2018-12-13T12:15:00.272Z,94666.47
2018-12-13T12:18:03.603Z,94672.13
2018-12-13T12:21:06.913Z,94671.34
2018-12-13T12:24:10.238Z,94674.20
2018-12-13T12:27:13.571Z,94670.59
2018-12-13T12:30:17.252Z,94667.25
2018-12-13T12:33:20.658Z,94669.13
2018-12-13T12:36:23.969Z,94667.34
2018-12-13T12:39:27.357Z,94667.09
2018-12-13T12:42:30.710Z,94665.30
2018-12-13T12:45:34.046Z,94666.61
2018-12-13T12:48:37.424Z,94663.47
2018-12-13T12:51:40.775Z,94663.51
2018-12-13T12:54:44.171Z,94665.34
2018-12-13T12:57:47.483Z,94664.55
2018-12-13T13:00:51.678Z,94665.78
2018-12-13T13:03:54.983Z,94660.34
2018-12-13T13:06:58.326Z,94662.95
2018-12-13T13:10:01.629Z,94664.30
2018-12-13T13:13:04.970Z,94658.59
2018-12-13T13:16:08.326Z,94661.46
2018-12-13T13:19:12.961Z,94661.27
2018-12-13T13:22:19.048Z,94660.98
2018-12-13T13:25:22.410Z,94661.95
2018-12-13T13:28:26.945Z,94663.81
2018-12-13T13:31:30.449Z,94665.11
2018-12-13T13:34:33.841Z,94667.53
2018-12-13T13:37:37.146Z,94670.95
2018-12-13T13:40:40.536Z,94668.40
2018-12-13T13:43:43.893Z,94669.47
2018-12-13T13:46:47.221Z,94671.58
2018-12-13T13:49:50.546Z,94667.92
2018-12-13T13:52:53.877Z,94666.64
2018-12-13T13:55:57.206Z,94668.98
2018-12-13T13:59:00.613Z,94668.45
2018-12-13T14:02:04.263Z,94671.05
2018-12-13T14:05:07.717Z,94676.24
2018-12-13T14:11:25.273Z,94674.16
2018-12-13T14:14:29.598Z,94671.34
2018-12-13T14:17:32.990Z,94675.22
2018-12-13T14:20:36.418Z,94671.81
2018-12-13T14:23:39.819Z,94667.38
2018-12-13T14:26:43.197Z,94672.33
2018-12-13T14:29:46.561Z,94675.18
2018-12-13T14:32:49.921Z,94675.70
2018-12-13T14:35:53.334Z,94674.66
2018-12-13T14:38:56.682Z,94672.83
2018-12-13T14:42:00.090Z,94678.86
2018-12-13T14:45:04.106Z,94681.70
2018-12-13T14:48:08.969Z,94678.05
2018-12-13T14:51:12.571Z,94681.20
2018-12-13T14:54:15.894Z,94681.46
2018-12-13T14:57:19.350Z,94684.84
2018-12-13T15:00:22.690Z,94684.35
2018-12-13T15:03:26.009Z,94687.19
2018-12-13T15:06:29.440Z,94687.45
2018-12-13T15:09:32.749Z,94695.28
2018-12-13T15:12:36.206Z,94696.87
2018-12-13T15:18:57.914Z,94690.62
2018-12-13T15:22:01.625Z,94690.39
2018-12-13T15:25:05.723Z,94690.14
2018-12-13T15:28:09.382Z,94691.47
2018-12-13T15:31:13.145Z,94690.42
2018-12-13T15:34:16.615Z,94690.68
2018-12-13T15:37:19.974Z,94684.70
2018-12-13T15:40:23.398Z,94689.11
2018-12-13T15:43:26.840Z,94693.03
2018-12-13T15:46:30.238Z,94688.32
2018-12-13T15:49:33.729Z,94695.09
2018-12-13T15:52:37.098Z,94695.36
2018-12-13T15:55:40.402Z,94693.27
2018-12-13T15:58:43.846Z,94695.34
2018-12-13T16:01:47.239Z,94696.64
2018-12-13T16:04:50.569Z,94704.20
2018-12-13T16:07:53.989Z,94701.60
2018-12-13T16:10:57.339Z,94707.33
2018-12-13T16:14:05.049Z,94697.44
2018-12-13T16:17:08.437Z,94705.25
2018-12-13T16:20:11.758Z,94702.89
2018-12-13T16:23:15.127Z,94703.94
2018-12-13T16:26:18.510Z,94700.28
2018-12-13T16:29:21.849Z,94700.02
2018-12-13T16:32:25.187Z,94700.81
2018-12-13T16:35:28.522Z,94707.33
2018-12-13T16:38:32.747Z,94703.94
2018-12-13T16:41:36.120Z,94707.34
2018-12-13T16:47:59.301Z,94708.40
2018-12-13T16:51:02.721Z,94710.72
2018-12-13T16:54:06.134Z,94710.21
2018-12-13T17:00:26.401Z,94709.41
2018-12-13T17:03:39.373Z,94710.22
2018-12-13T17:06:42.734Z,94705.26
2018-12-13T17:09:46.137Z,94706.04
2018-12-13T17:12:49.574Z,94705.78
2018-12-13T17:15:53.854Z,94715.41
2018-12-13T17:18:57.191Z,94707.61
2018-12-13T17:22:00.606Z,94710.22
2018-12-13T17:25:04.600Z,94714.91
2018-12-13T17:28:08.094Z,94713.87
2018-12-13T17:31:11.498Z,94715.43
2018-12-13T17:34:14.858Z,94720.13
2018-12-13T17:37:18.186Z,94719.33
2018-12-13T17:40:23.231Z,94727.41
2018-12-13T17:43:26.746Z,94720.38
2018-12-13T17:46:30.077Z,94726.64
2018-12-13T17:49:33.525Z,94719.34
2018-12-13T17:52:36.889Z,94716.20
2018-12-13T17:55:40.212Z,94715.18
2018-12-13T17:58:43.618Z,94722.72
2018-12-13T18:01:46.977Z,94716.48
2018-12-13T18:04:50.325Z,94719.59
2018-12-13T18:07:53.757Z,94719.86
2018-12-13T18:10:57.133Z,94719.34
2018-12-13T18:14:00.447Z,94729.23
2018-12-13T18:17:03.901Z,94722.99
2018-12-13T18:20:07.348Z,94722.22
2018-12-13T18:23:10.729Z,94728.73
2018-12-13T18:26:14.061Z,94728.70
2018-12-13T18:29:17.378Z,94730.02
2018-12-13T18:32:20.825Z,94733.42
2018-12-13T18:35:24.250Z,94725.60
2018-12-13T18:38:27.557Z,94725.58
2018-12-13T18:41:30.877Z,94728.20
2018-12-13T18:44:34.224Z,94719.06
2018-12-13T18:47:37.668Z,94723.00
2018-12-13T18:50:40.961Z,94730.27
2018-12-13T18:53:44.331Z,94733.94
2018-12-13T18:56:47.766Z,94728.20
2018-12-13T18:59:51.225Z,94731.05
2018-12-13T19:02:54.615Z,94730.80
2018-12-13T19:05:57.969Z,94731.32
2018-12-13T19:09:01.282Z,94733.93
2018-12-13T19:12:04.798Z,94734.70
2018-12-13T19:15:08.150Z,94737.30
2018-12-13T19:18:11.513Z,94737.83
2018-12-13T19:21:14.843Z,94733.42
2018-12-13T19:24:18.150Z,94734.72
2018-12-13T19:27:21.525Z,94740.97
2018-12-13T19:30:25.004Z,94737.83
2018-12-13T19:33:28.315Z,94740.70
2018-12-13T19:36:46.281Z,94738.34
2018-12-13T19:39:49.645Z,94737.58
2018-12-13T19:42:53.045Z,94741.20
2018-12-13T19:45:56.834Z,94735.49
2018-12-13T19:49:00.295Z,94744.33
2018-12-13T19:52:03.640Z,94738.34
2018-12-13T19:55:08.653Z,94746.66
2018-12-13T19:58:12.085Z,94748.73
2018-12-13T20:01:16.671Z,94748.77
2018-12-13T20:04:20.297Z,94752.64
2018-12-13T20:07:24.737Z,94750.83
2018-12-13T20:10:29.297Z,94747.70
2018-12-13T20:13:32.967Z,94745.64
2018-12-13T20:16:36.570Z,94747.98
2018-12-13T20:19:41.688Z,94750.84
2018-12-13T20:22:46.280Z,94760.99
2018-12-13T20:25:49.938Z,94761.77
2018-12-13T20:28:55.361Z,94763.83
2018-12-13T20:31:59.053Z,94765.94
2018-12-13T20:35:02.769Z,94767.23
2018-12-13T20:38:09.301Z,94765.41
2018-12-13T20:41:13.345Z,94763.33
2018-12-13T20:44:26.635Z,94760.19
2018-12-13T20:47:30.230Z,94756.28
2018-12-13T20:50:33.595Z,94756.55
2018-12-13T20:53:37.137Z,94762.83
2018-12-13T20:56:40.453Z,94759.16
2018-12-13T20:59:43.813Z,94753.72
2018-12-13T21:02:47.217Z,94750.81
2018-12-13T21:05:50.975Z,94753.15
2018-12-13T21:08:54.448Z,94753.65
2018-12-13T21:11:58.061Z,94751.03
2018-12-13T21:15:01.519Z,94759.09
2018-12-13T21:18:05.051Z,94758.06
2018-12-13T21:21:08.451Z,94756.27
2018-12-13T21:24:11.804Z,94755.98
2018-12-13T21:27:15.172Z,94757.55
2018-12-13T21:30:18.780Z,94751.83
2018-12-13T21:33:22.181Z,94753.88
2018-12-13T21:36:25.561Z,94758.34
2018-12-13T21:39:29.147Z,94753.90
2018-12-13T21:42:32.541Z,94755.75
2018-12-13T21:45:36.188Z,94756.78
2018-12-13T21:48:39.730Z,94759.89
2018-12-13T21:51:43.128Z,94759.11
2018-12-13T21:54:46.533Z,94755.16
2018-12-13T21:57:49.942Z,94762.97
2018-12-13T22:00:53.394Z,94762.47
2018-12-13T22:03:56.807Z,94762.22
2018-12-13T22:07:00.127Z,94759.83
2018-12-13T22:10:05.167Z,94758.05
2018-12-13T22:13:08.490Z,94759.62
2018-12-13T22:16:11.805Z,94762.48
2018-12-13T22:19:15.114Z,94765.59
2018-12-13T22:22:18.649Z,94767.96
2018-12-13T22:25:22.030Z,94768.98
2018-12-13T22:28:25.353Z,94771.05
2018-12-13T22:31:28.702Z,94775.23
2018-12-13T22:34:32.024Z,94779.91
2018-12-13T22:37:35.336Z,94774.67
2018-12-13T22:40:39.349Z,94771.33
2018-12-13T22:43:42.678Z,94772.89
2018-12-13T22:46:46.094Z,94771.63
2018-12-13T22:49:49.406Z,94770.05
2018-12-13T22:52:52.725Z,94772.10
2018-12-13T22:55:56.097Z,94765.56
2018-12-13T22:58:59.412Z,94772.84
2018-12-13T23:02:02.739Z,94764.52
2018-12-13T23:05:06.668Z,94770.77
2018-12-13T23:08:10.060Z,94767.92
2018-12-13T23:11:13.718Z,94771.06
2018-12-13T23:14:17.034Z,94776.51
2018-12-13T23:17:20.976Z,94774.70
2018-12-13T23:20:24.282Z,94767.41
2018-12-13T23:23:27.691Z,94773.91
2018-12-13T23:26:32.762Z,94769.73
2018-12-13T23:29:36.068Z,94770.77
2018-12-13T23:32:39.434Z,94764.54
2018-12-13T23:35:42.809Z,94766.13
2018-12-13T23:38:46.209Z,94765.56
2018-12-13T23:41:49.522Z,94765.30
2018-12-13T23:44:52.925Z,94764.80
2018-12-13T23:47:56.243Z,94766.37
2018-12-13T23:50:59.580Z,94769.72
2018-12-13T23:54:03.081Z,94771.55
2018-12-13T23:57:06.438Z,94777.83
